KIPL/IPL METAR and TAF weather

Enter ICAO airport designator
Station Type Date Time Source
KIPL METAR 2020/08/05 14:53 UTC NOAA

KIPL 051453Z AUTO 24012KT 10SM CLR 32/02 A2976 RMK AO2 SLP079 T03170017 51007


Station Type Date Time Source
KIPL Decoded METAR 2020/08/05 14:53 UTC NOAA

Imperial, Imperial County Airport, CA, United States (KIPL) 32-50-03N 115-34-43W -15M
Aug 05, 2020 - 10:53 AM EDT / 2020.08.05 1453 UTC
Wind: from the WSW (240 degrees) at 14 MPH (12 KT):0
Visibility: 10 mile(s):0
Sky conditions: clear
Temperature: 89.1 F (31.7 C)
Dew Point: 35.1 F (1.7 C)
Relative Humidity: 14%
Pressure (altimeter): 29.76 in. Hg (1007 hPa)
Pressure tendency: 0.02 inches (0.7 hPa) higher than three hours ago
ob: KIPL 051453Z AUTO 24012KT 10SM CLR 32/02 A2976 RMK AO2 SLP079 T03170017 51007
cycle: 15

Station Type Date Time Source
KIPL TAF 2020/08/05 12:33 UTC NOAA

TAF KIPL 051130Z 0512/0612 24010KT P6SM SKC
FM052100 26012G20KT P6SM SKC
FM052300 25018G28KT P6SM SKC
FM060400 26012KT P6SM SKC

Example: see airport list